Decoded Metar for PAVA (Chevak in AK, USA) (IATA:N/A) | Meteo·Mobile Aviation Weather
aviador You're here:

PAVA Decoded Metar

Chevak in AK, USA
Report Time2019-02-22 22:56:00
UTC Time2019-02-23 00:30:03
Flight Rules Old
Wind170° at 26 Gusting to 33 kt
W.Decomp.*RWY 20: 19.0 kt HW 17.7 kt LCW
W.Rank170° ranks 29
Current wind is above 170° avg. (12.2)
Visibility8047 m
Phenomena:Mist
Clouds:Overcast 034 Hf
Expected CloudBase > 400 ft AGL from Temp-Dew spread
Ceiling3,400 ft
Temp01°C (ISA -14)
Dew Point00°C (93% RH)
AAT-10.3°C
QNH1013 hPa
Density Alt-1,532 ft
Elevation75 ft
Report Wrong Elevation
Raw Report
PAVA 222256Z AUTO 17026G33KT 5SM BR OVC034 01/00 A2992 RMK AO2 PK
WND 17033/2253 UPE37 SLP218 P0000 T00060000 FZRANO=

Extra information for PAVA:More info

Airport Information Weather charts Add Link Nearby Venues Social comments

AIRNAV info for PAVA